sensor_id;sensor_type;location;lat;lon;timestamp;P1;durP1;ratioP1;P2;durP2;ratioP2
8610;SDS011;4343;53.648;10.098;2023-07-28T00:00:31;3.45;;;3.28;;
8610;SDS011;4343;53.648;10.098;2023-07-28T00:02:56;3.42;;;3.22;;
8610;SDS011;4343;53.648;10.098;2023-07-28T00:05:22;3.50;;;3.25;;
8610;SDS011;4343;53.648;10.098;2023-07-28T00:07:47;3.17;;;3.08;;
8610;SDS011;4343;53.648;10.098;2023-07-28T00:10:13;3.28;;;3.17;;
8610;SDS011;4343;53.648;10.098;2023-07-28T00:12:38;3.45;;;3.25;;
8610;SDS011;4343;53.648;10.098;2023-07-28T00:15:04;3.22;;;3.13;;
8610;SDS011;4343;53.648;10.098;2023-07-28T00:17:30;6.90;;;3.50;;
8610;SDS011;4343;53.648;10.098;2023-07-28T00:19:56;3.38;;;3.28;;
8610;SDS011;4343;53.648;10.098;2023-07-28T00:22:21;2.95;;;2.85;;
8610;SDS011;4343;53.648;10.098;2023-07-28T00:24:47;3.25;;;3.15;;
8610;SDS011;4343;53.648;10.098;2023-07-28T00:27:12;3.42;;;3.25;;
8610;SDS011;4343;53.648;10.098;2023-07-28T00:29:39;3.70;;;3.50;;
8610;SDS011;4343;53.648;10.098;2023-07-28T00:32:06;3.00;;;2.90;;
8610;SDS011;4343;53.648;10.098;2023-07-28T00:34:32;3.45;;;3.20;;
8610;SDS011;4343;53.648;10.098;2023-07-28T00:36:57;2.95;;;2.85;;
8610;SDS011;4343;53.648;10.098;2023-07-28T00:39:23;3.55;;;3.35;;
8610;SDS011;4343;53.648;10.098;2023-07-28T00:41:48;3.08;;;2.97;;
8610;SDS011;4343;53.648;10.098;2023-07-28T00:44:14;3.22;;;3.13;;
8610;SDS011;4343;53.648;10.098;2023-07-28T00:46:41;3.15;;;3.00;;
8610;SDS011;4343;53.648;10.098;2023-07-28T00:49:07;3.30;;;3.20;;
8610;SDS011;4343;53.648;10.098;2023-07-28T00:51:33;3.22;;;3.13;;
8610;SDS011;4343;53.648;10.098;2023-07-28T00:54:02;3.22;;;3.03;;
8610;SDS011;4343;53.648;10.098;2023-07-28T00:56:30;2.83;;;2.72;;
8610;SDS011;4343;53.648;10.098;2023-07-28T00:58:56;3.10;;;3.00;;
8610;SDS011;4343;53.648;10.098;2023-07-28T01:01:22;3.30;;;3.20;;
8610;SDS011;4343;53.648;10.098;2023-07-28T01:03:48;3.40;;;3.30;;
8610;SDS011;4343;53.648;10.098;2023-07-28T01:06:18;3.35;;;3.25;;
8610;SDS011;4343;53.648;10.098;2023-07-28T01:08:55;3.20;;;3.10;;
8610;SDS011;4343;53.648;10.098;2023-07-28T01:11:29;2.90;;;2.80;;
8610;SDS011;4343;53.648;10.098;2023-07-28T01:13:55;3.10;;;3.00;;
8610;SDS011;4343;53.648;10.098;2023-07-28T01:16:20;3.17;;;3.08;;
8610;SDS011;4343;53.648;10.098;2023-07-28T01:18:46;3.05;;;2.95;;
8610;SDS011;4343;53.648;10.098;2023-07-28T01:21:30;3.50;;;3.40;;
8610;SDS011;4343;53.648;10.098;2023-07-28T01:24:20;2.78;;;2.67;;
8610;SDS011;4343;53.648;10.098;2023-07-28T01:26:53;3.40;;;3.30;;
8610;SDS011;4343;53.648;10.098;2023-07-28T01:29:19;3.10;;;3.00;;
8610;SDS011;4343;53.648;10.098;2023-07-28T01:31:47;2.58;;;2.50;;
8610;SDS011;4343;53.648;10.098;2023-07-28T01:34:12;3.58;;;3.38;;
8610;SDS011;4343;53.648;10.098;2023-07-28T01:36:38;3.28;;;3.17;;
8610;SDS011;4343;53.648;10.098;2023-07-28T01:39:04;2.92;;;2.83;;
8610;SDS011;4343;53.648;10.098;2023-07-28T01:41:29;3.40;;;3.30;;
8610;SDS011;4343;53.648;10.098;2023-07-28T01:43:55;2.65;;;2.55;;
8610;SDS011;4343;53.648;10.098;2023-07-28T01:46:20;2.75;;;2.65;;
8610;SDS011;4343;53.648;10.098;2023-07-28T01:48:47;3.20;;;3.10;;
8610;SDS011;4343;53.648;10.098;2023-07-28T01:51:12;3.75;;;3.47;;
8610;SDS011;4343;53.648;10.098;2023-07-28T01:53:38;3.50;;;3.40;;
8610;SDS011;4343;53.648;10.098;2023-07-28T01:56:03;3.30;;;3.20;;
8610;SDS011;4343;53.648;10.098;2023-07-28T01:58:29;3.00;;;2.90;;
8610;SDS011;4343;53.648;10.098;2023-07-28T02:00:55;3.50;;;3.40;;
8610;SDS011;4343;53.648;10.098;2023-07-28T02:03:20;3.20;;;2.95;;
8610;SDS011;4343;53.648;10.098;2023-07-28T02:05:45;3.40;;;3.30;;
8610;SDS011;4343;53.648;10.098;2023-07-28T02:08:11;3.15;;;2.92;;
8610;SDS011;4343;53.648;10.098;2023-07-28T02:10:37;3.58;;;3.47;;
8610;SDS011;4343;53.648;10.098;2023-07-28T02:13:03;3.30;;;3.20;;
8610;SDS011;4343;53.648;10.098;2023-07-28T02:15:28;3.13;;;3.03;;
8610;SDS011;4343;53.648;10.098;2023-07-28T02:17:54;3.30;;;3.20;;
8610;SDS011;4343;53.648;10.098;2023-07-28T02:20:19;3.35;;;3.15;;
8610;SDS011;4343;53.648;10.098;2023-07-28T02:22:45;3.38;;;3.28;;
8610;SDS011;4343;53.648;10.098;2023-07-28T02:25:10;3.58;;;3.47;;
8610;SDS011;4343;53.648;10.098;2023-07-28T02:27:36;3.17;;;3.08;;
8610;SDS011;4343;53.648;10.098;2023-07-28T02:30:03;3.63;;;3.53;;
8610;SDS011;4343;53.648;10.098;2023-07-28T02:32:29;3.20;;;3.10;;
8610;SDS011;4343;53.648;10.098;2023-07-28T02:34:55;3.60;;;3.50;;
8610;SDS011;4343;53.648;10.098;2023-07-28T02:37:21;3.67;;;3.55;;
8610;SDS011;4343;53.648;10.098;2023-07-28T02:39:46;3.53;;;3.42;;
8610;SDS011;4343;53.648;10.098;2023-07-28T02:42:12;3.53;;;3.33;;
8610;SDS011;4343;53.648;10.098;2023-07-28T02:44:37;3.55;;;3.45;;
8610;SDS011;4343;53.648;10.098;2023-07-28T02:47:03;3.22;;;3.13;;
8610;SDS011;4343;53.648;10.098;2023-07-28T02:49:29;3.53;;;3.33;;
8610;SDS011;4343;53.648;10.098;2023-07-28T02:51:55;3.63;;;3.42;;
8610;SDS011;4343;53.648;10.098;2023-07-28T02:54:20;2.97;;;2.88;;
8610;SDS011;4343;53.648;10.098;2023-07-28T02:56:48;2.70;;;2.60;;
8610;SDS011;4343;53.648;10.098;2023-07-28T02:59:14;2.65;;;2.55;;
8610;SDS011;4343;53.648;10.098;2023-07-28T03:01:40;2.67;;;2.65;;
8610;SDS011;4343;53.648;10.098;2023-07-28T03:04:05;2.97;;;2.88;;
8610;SDS011;4343;53.648;10.098;2023-07-28T03:06:31;2.70;;;2.70;;
8610;SDS011;4343;53.648;10.098;2023-07-28T03:08:58;2.50;;;2.50;;
8610;SDS011;4343;53.648;10.098;2023-07-28T03:11:23;2.40;;;2.40;;
8610;SDS011;4343;53.648;10.098;2023-07-28T03:13:49;2.40;;;2.30;;
8610;SDS011;4343;53.648;10.098;2023-07-28T03:16:14;2.10;;;2.10;;
8610;SDS011;4343;53.648;10.098;2023-07-28T03:18:40;2.05;;;2.05;;
8610;SDS011;4343;53.648;10.098;2023-07-28T03:21:08;1.92;;;1.92;;
8610;SDS011;4343;53.648;10.098;2023-07-28T03:23:34;2.00;;;2.00;;
8610;SDS011;4343;53.648;10.098;2023-07-28T03:25:59;2.00;;;2.00;;
8610;SDS011;4343;53.648;10.098;2023-07-28T03:28:25;2.10;;;2.00;;
8610;SDS011;4343;53.648;10.098;2023-07-28T03:30:51;1.98;;;1.98;;
8610;SDS011;4343;53.648;10.098;2023-07-28T03:33:16;1.90;;;1.90;;
8610;SDS011;4343;53.648;10.098;2023-07-28T03:35:42;1.70;;;1.70;;
8610;SDS011;4343;53.648;10.098;2023-07-28T03:38:07;1.88;;;1.88;;
8610;SDS011;4343;53.648;10.098;2023-07-28T03:40:33;1.80;;;1.70;;
8610;SDS011;4343;53.648;10.098;2023-07-28T03:42:58;2.00;;;2.00;;
8610;SDS011;4343;53.648;10.098;2023-07-28T03:45:24;1.90;;;1.90;;
8610;SDS011;4343;53.648;10.098;2023-07-28T03:47:49;2.00;;;1.90;;
8610;SDS011;4343;53.648;10.098;2023-07-28T03:50:15;1.67;;;1.67;;
8610;SDS011;4343;53.648;10.098;2023-07-28T03:52:41;2.08;;;2.08;;
8610;SDS011;4343;53.648;10.098;2023-07-28T03:55:06;2.00;;;2.00;;
8610;SDS011;4343;53.648;10.098;2023-07-28T03:57:32;2.30;;;2.30;;
8610;SDS011;4343;53.648;10.098;2023-07-28T03:59:57;2.20;;;2.20;;
8610;SDS011;4343;53.648;10.098;2023-07-28T04:02:23;2.53;;;2.42;;
8610;SDS011;4343;53.648;10.098;2023-07-28T04:04:53;2.95;;;2.85;;
8610;SDS011;4343;53.648;10.098;2023-07-28T04:07:21;2.70;;;2.60;;
8610;SDS011;4343;53.648;10.098;2023-07-28T04:09:47;2.58;;;2.58;;
8610;SDS011;4343;53.648;10.098;2023-07-28T04:12:13;2.97;;;2.88;;
8610;SDS011;4343;53.648;10.098;2023-07-28T04:14:38;2.90;;;2.80;;
8610;SDS011;4343;53.648;10.098;2023-07-28T04:17:04;2.67;;;2.58;;
8610;SDS011;4343;53.648;10.098;2023-07-28T04:19:30;2.50;;;2.50;;
8610;SDS011;4343;53.648;10.098;2023-07-28T04:21:59;3.20;;;3.10;;
8610;SDS011;4343;53.648;10.098;2023-07-28T04:24:25;2.97;;;2.88;;
8610;SDS011;4343;53.648;10.098;2023-07-28T04:26:51;2.78;;;2.72;;
8610;SDS011;4343;53.648;10.098;2023-07-28T04:29:16;3.17;;;3.08;;
8610;SDS011;4343;53.648;10.098;2023-07-28T04:31:42;3.33;;;3.22;;
8610;SDS011;4343;53.648;10.098;2023-07-28T04:34:08;2.90;;;2.85;;
8610;SDS011;4343;53.648;10.098;2023-07-28T04:36:33;3.00;;;2.90;;
8610;SDS011;4343;53.648;10.098;2023-07-28T04:38:59;3.17;;;3.08;;
8610;SDS011;4343;53.648;10.098;2023-07-28T04:41:25;2.75;;;2.72;;
8610;SDS011;4343;53.648;10.098;2023-07-28T04:43:50;3.20;;;3.10;;
8610;SDS011;4343;53.648;10.098;2023-07-28T04:46:16;3.00;;;2.90;;
8610;SDS011;4343;53.648;10.098;2023-07-28T04:48:41;3.20;;;3.10;;
8610;SDS011;4343;53.648;10.098;2023-07-28T04:51:07;2.92;;;2.90;;
8610;SDS011;4343;53.648;10.098;2023-07-28T04:53:32;2.97;;;2.88;;
8610;SDS011;4343;53.648;10.098;2023-07-28T04:55:58;3.20;;;3.10;;
8610;SDS011;4343;53.648;10.098;2023-07-28T04:58:23;2.78;;;2.58;;
8610;SDS011;4343;53.648;10.098;2023-07-28T05:00:49;3.20;;;3.10;;
8610;SDS011;4343;53.648;10.098;2023-07-28T05:03:15;3.00;;;2.90;;
8610;SDS011;4343;53.648;10.098;2023-07-28T05:05:42;2.90;;;2.80;;
8610;SDS011;4343;53.648;10.098;2023-07-28T05:08:09;3.47;;;3.38;;
8610;SDS011;4343;53.648;10.098;2023-07-28T05:10:35;3.10;;;3.00;;
8610;SDS011;4343;53.648;10.098;2023-07-28T05:13:00;3.35;;;3.25;;
8610;SDS011;4343;53.648;10.098;2023-07-28T05:15:26;3.20;;;3.10;;
8610;SDS011;4343;53.648;10.098;2023-07-28T05:17:51;2.92;;;2.83;;
8610;SDS011;4343;53.648;10.098;2023-07-28T05:20:17;3.25;;;3.15;;
8610;SDS011;4343;53.648;10.098;2023-07-28T05:22:42;3.42;;;3.33;;
8610;SDS011;4343;53.648;10.098;2023-07-28T05:25:08;3.13;;;3.03;;
8610;SDS011;4343;53.648;10.098;2023-07-28T05:27:33;3.20;;;3.10;;
8610;SDS011;4343;53.648;10.098;2023-07-28T05:29:59;3.22;;;3.03;;
8610;SDS011;4343;53.648;10.098;2023-07-28T05:32:24;3.50;;;3.30;;
8610;SDS011;4343;53.648;10.098;2023-07-28T05:34:50;3.28;;;3.10;;
8610;SDS011;4343;53.648;10.098;2023-07-28T05:37:15;3.47;;;3.38;;
8610;SDS011;4343;53.648;10.098;2023-07-28T05:39:41;3.67;;;3.58;;
8610;SDS011;4343;53.648;10.098;2023-07-28T05:42:07;3.40;;;3.30;;
8610;SDS011;4343;53.648;10.098;2023-07-28T05:44:33;3.70;;;3.60;;
8610;SDS011;4343;53.648;10.098;2023-07-28T05:46:59;3.63;;;3.53;;
8610;SDS011;4343;53.648;10.098;2023-07-28T05:49:25;3.42;;;3.33;;
8610;SDS011;4343;53.648;10.098;2023-07-28T05:51:50;3.28;;;3.17;;
8610;SDS011;4343;53.648;10.098;2023-07-28T05:54:16;3.60;;;3.50;;
8610;SDS011;4343;53.648;10.098;2023-07-28T05:56:41;3.30;;;3.20;;
8610;SDS011;4343;53.648;10.098;2023-07-28T05:59:08;3.40;;;3.30;;
8610;SDS011;4343;53.648;10.098;2023-07-28T06:01:33;3.33;;;3.13;;
8610;SDS011;4343;53.648;10.098;2023-07-28T06:03:59;3.50;;;3.40;;
8610;SDS011;4343;53.648;10.098;2023-07-28T06:06:25;3.97;;;3.80;;
8610;SDS011;4343;53.648;10.098;2023-07-28T06:08:51;3.50;;;3.40;;
8610;SDS011;4343;53.648;10.098;2023-07-28T06:11:17;3.60;;;3.50;;
8610;SDS011;4343;53.648;10.098;2023-07-28T06:13:43;3.17;;;3.08;;
8610;SDS011;4343;53.648;10.098;2023-07-28T06:16:09;3.03;;;2.92;;
8610;SDS011;4343;53.648;10.098;2023-07-28T06:18:34;3.10;;;3.00;;
8610;SDS011;4343;53.648;10.098;2023-07-28T06:21:00;3.40;;;3.20;;
8610;SDS011;4343;53.648;10.098;2023-07-28T06:23:25;3.30;;;3.20;;
8610;SDS011;4343;53.648;10.098;2023-07-28T06:25:51;3.00;;;2.90;;
8610;SDS011;4343;53.648;10.098;2023-07-28T06:28:16;3.15;;;3.05;;
8610;SDS011;4343;53.648;10.098;2023-07-28T06:30:42;3.00;;;2.90;;
8610;SDS011;4343;53.648;10.098;2023-07-28T06:33:08;3.10;;;3.00;;
8610;SDS011;4343;53.648;10.098;2023-07-28T06:35:34;2.85;;;2.75;;
8610;SDS011;4343;53.648;10.098;2023-07-28T06:38:00;2.92;;;2.80;;
8610;SDS011;4343;53.648;10.098;2023-07-28T06:40:26;2.90;;;2.80;;
8610;SDS011;4343;53.648;10.098;2023-07-28T06:42:51;2.70;;;2.55;;
8610;SDS011;4343;53.648;10.098;2023-07-28T06:45:17;2.28;;;2.25;;
8610;SDS011;4343;53.648;10.098;2023-07-28T06:47:42;2.60;;;2.50;;
8610;SDS011;4343;53.648;10.098;2023-07-28T06:50:08;2.40;;;2.30;;
8610;SDS011;4343;53.648;10.098;2023-07-28T06:52:35;2.85;;;2.75;;
8610;SDS011;4343;53.648;10.098;2023-07-28T06:55:01;2.63;;;2.53;;
8610;SDS011;4343;53.648;10.098;2023-07-28T06:57:27;2.20;;;2.20;;
8610;SDS011;4343;53.648;10.098;2023-07-28T06:59:53;2.65;;;2.55;;
8610;SDS011;4343;53.648;10.098;2023-07-28T07:02:18;2.35;;;2.25;;
8610;SDS011;4343;53.648;10.098;2023-07-28T07:04:44;2.30;;;2.30;;
8610;SDS011;4343;53.648;10.098;2023-07-28T07:07:09;2.60;;;2.40;;
8610;SDS011;4343;53.648;10.098;2023-07-28T07:09:35;3.03;;;2.92;;
8610;SDS011;4343;53.648;10.098;2023-07-28T07:12:01;2.50;;;2.40;;
8610;SDS011;4343;53.648;10.098;2023-07-28T07:14:27;2.38;;;2.38;;
8610;SDS011;4343;53.648;10.098;2023-07-28T07:16:52;2.15;;;2.15;;
8610;SDS011;4343;53.648;10.098;2023-07-28T07:19:18;2.28;;;2.17;;
8610;SDS011;4343;53.648;10.098;2023-07-28T07:21:44;2.30;;;2.20;;
8610;SDS011;4343;53.648;10.098;2023-07-28T07:24:10;2.22;;;2.13;;
8610;SDS011;4343;53.648;10.098;2023-07-28T07:26:38;2.17;;;2.08;;
8610;SDS011;4343;53.648;10.098;2023-07-28T07:29:07;2.50;;;2.40;;
8610;SDS011;4343;53.648;10.098;2023-07-28T07:31:33;2.20;;;2.10;;
8610;SDS011;4343;53.648;10.098;2023-07-28T07:33:59;1.80;;;1.80;;
8610;SDS011;4343;53.648;10.098;2023-07-28T07:36:25;2.30;;;2.20;;
8610;SDS011;4343;53.648;10.098;2023-07-28T07:38:50;2.20;;;2.03;;
8610;SDS011;4343;53.648;10.098;2023-07-28T07:41:16;2.10;;;2.10;;
8610;SDS011;4343;53.648;10.098;2023-07-28T07:43:44;2.20;;;2.10;;
8610;SDS011;4343;53.648;10.098;2023-07-28T07:46:10;2.08;;;1.98;;
8610;SDS011;4343;53.648;10.098;2023-07-28T07:48:36;1.77;;;1.77;;
8610;SDS011;4343;53.648;10.098;2023-07-28T07:51:02;1.92;;;1.83;;
8610;SDS011;4343;53.648;10.098;2023-07-28T07:53:27;1.65;;;1.65;;
8610;SDS011;4343;53.648;10.098;2023-07-28T07:55:53;1.60;;;1.60;;
8610;SDS011;4343;53.648;10.098;2023-07-28T07:58:18;1.55;;;1.55;;
8610;SDS011;4343;53.648;10.098;2023-07-28T08:00:44;1.67;;;1.67;;
8610;SDS011;4343;53.648;10.098;2023-07-28T08:03:09;1.52;;;1.52;;
8610;SDS011;4343;53.648;10.098;2023-07-28T08:05:35;1.65;;;1.60;;
8610;SDS011;4343;53.648;10.098;2023-07-28T08:08:00;1.67;;;1.67;;
8610;SDS011;4343;53.648;10.098;2023-07-28T08:10:26;1.80;;;1.80;;
8610;SDS011;4343;53.648;10.098;2023-07-28T08:12:52;1.58;;;1.58;;
8610;SDS011;4343;53.648;10.098;2023-07-28T08:15:19;1.67;;;1.67;;
8610;SDS011;4343;53.648;10.098;2023-07-28T08:17:45;1.90;;;1.90;;
8610;SDS011;4343;53.648;10.098;2023-07-28T08:20:11;1.35;;;1.35;;
8610;SDS011;4343;53.648;10.098;2023-07-28T08:22:37;1.50;;;1.50;;
8610;SDS011;4343;53.648;10.098;2023-07-28T08:25:03;1.92;;;1.88;;
8610;SDS011;4343;53.648;10.098;2023-07-28T08:27:30;1.75;;;1.65;;
8610;SDS011;4343;53.648;10.098;2023-07-28T08:29:55;1.40;;;1.40;;
8610;SDS011;4343;53.648;10.098;2023-07-28T08:32:21;1.63;;;1.63;;
8610;SDS011;4343;53.648;10.098;2023-07-28T08:34:47;1.50;;;1.50;;
8610;SDS011;4343;53.648;10.098;2023-07-28T08:37:13;1.65;;;1.65;;
8610;SDS011;4343;53.648;10.098;2023-07-28T08:39:38;1.75;;;1.75;;
8610;SDS011;4343;53.648;10.098;2023-07-28T08:42:04;1.75;;;1.65;;
8610;SDS011;4343;53.648;10.098;2023-07-28T08:44:30;1.35;;;1.35;;
8610;SDS011;4343;53.648;10.098;2023-07-28T08:46:57;1.55;;;1.55;;
8610;SDS011;4343;53.648;10.098;2023-07-28T08:49:24;1.73;;;1.73;;
8610;SDS011;4343;53.648;10.098;2023-07-28T08:51:51;1.60;;;1.60;;
8610;SDS011;4343;53.648;10.098;2023-07-28T08:54:22;1.83;;;1.73;;
8610;SDS011;4343;53.648;10.098;2023-07-28T08:56:47;1.70;;;1.70;;
8610;SDS011;4343;53.648;10.098;2023-07-28T08:59:20;1.50;;;1.50;;
8610;SDS011;4343;53.648;10.098;2023-07-28T09:01:52;1.92;;;1.83;;
8610;SDS011;4343;53.648;10.098;2023-07-28T09:04:19;1.77;;;1.77;;
8610;SDS011;4343;53.648;10.098;2023-07-28T09:06:45;1.60;;;1.60;;
8610;SDS011;4343;53.648;10.098;2023-07-28T09:09:12;1.77;;;1.77;;
8610;SDS011;4343;53.648;10.098;2023-07-28T09:11:45;1.73;;;1.70;;
8610;SDS011;4343;53.648;10.098;2023-07-28T09:14:12;2.08;;;1.90;;
8610;SDS011;4343;53.648;10.098;2023-07-28T09:16:38;1.60;;;1.60;;
8610;SDS011;4343;53.648;10.098;2023-07-28T09:19:07;1.70;;;1.67;;
8610;SDS011;4343;53.648;10.098;2023-07-28T09:21:35;1.73;;;1.67;;
8610;SDS011;4343;53.648;10.098;2023-07-28T09:24:06;1.60;;;1.60;;
8610;SDS011;4343;53.648;10.098;2023-07-28T09:26:40;1.58;;;1.58;;
8610;SDS011;4343;53.648;10.098;2023-07-28T09:29:19;1.63;;;1.63;;
8610;SDS011;4343;53.648;10.098;2023-07-28T09:31:46;1.65;;;1.65;;
8610;SDS011;4343;53.648;10.098;2023-07-28T09:34:13;1.40;;;1.40;;
8610;SDS011;4343;53.648;10.098;2023-07-28T09:36:55;1.77;;;1.67;;
8610;SDS011;4343;53.648;10.098;2023-07-28T09:39:22;1.67;;;1.67;;
8610;SDS011;4343;53.648;10.098;2023-07-28T09:41:48;1.38;;;1.38;;
8610;SDS011;4343;53.648;10.098;2023-07-28T09:44:14;1.60;;;1.60;;
8610;SDS011;4343;53.648;10.098;2023-07-28T09:46:49;1.50;;;1.50;;
8610;SDS011;4343;53.648;10.098;2023-07-28T09:49:19;1.90;;;1.85;;
8610;SDS011;4343;53.648;10.098;2023-07-28T09:52:08;1.60;;;1.60;;
8610;SDS011;4343;53.648;10.098;2023-07-28T09:54:38;1.50;;;1.50;;
8610;SDS011;4343;53.648;10.098;2023-07-28T09:57:04;1.50;;;1.50;;
8610;SDS011;4343;53.648;10.098;2023-07-28T09:59:38;1.73;;;1.70;;
8610;SDS011;4343;53.648;10.098;2023-07-28T10:02:05;1.63;;;1.60;;
8610;SDS011;4343;53.648;10.098;2023-07-28T10:04:31;1.67;;;1.58;;
8610;SDS011;4343;53.648;10.098;2023-07-28T10:06:57;1.48;;;1.48;;
8610;SDS011;4343;53.648;10.098;2023-07-28T10:09:24;1.55;;;1.55;;
8610;SDS011;4343;53.648;10.098;2023-07-28T10:11:51;1.30;;;1.30;;
8610;SDS011;4343;53.648;10.098;2023-07-28T10:14:27;1.40;;;1.40;;
8610;SDS011;4343;53.648;10.098;2023-07-28T10:17:02;1.30;;;1.30;;
8610;SDS011;4343;53.648;10.098;2023-07-28T10:19:29;1.60;;;1.60;;
8610;SDS011;4343;53.648;10.098;2023-07-28T10:22:11;1.60;;;1.60;;
8610;SDS011;4343;53.648;10.098;2023-07-28T10:24:49;1.30;;;1.30;;
8610;SDS011;4343;53.648;10.098;2023-07-28T10:27:31;1.65;;;1.55;;
8610;SDS011;4343;53.648;10.098;2023-07-28T10:30:01;1.63;;;1.52;;
8610;SDS011;4343;53.648;10.098;2023-07-28T10:32:34;1.45;;;1.45;;
8610;SDS011;4343;53.648;10.098;2023-07-28T10:37:37;1.55;;;1.45;;
8610;SDS011;4343;53.648;10.098;2023-07-28T10:40:22;1.27;;;1.27;;
8610;SDS011;4343;53.648;10.098;2023-07-28T10:42:51;1.20;;;1.20;;
8610;SDS011;4343;53.648;10.098;2023-07-28T10:45:17;1.30;;;1.30;;
8610;SDS011;4343;53.648;10.098;2023-07-28T10:47:43;1.40;;;1.40;;
8610;SDS011;4343;53.648;10.098;2023-07-28T10:50:10;1.30;;;1.30;;
8610;SDS011;4343;53.648;10.098;2023-07-28T10:52:43;1.20;;;1.20;;
8610;SDS011;4343;53.648;10.098;2023-07-28T10:55:19;1.40;;;1.40;;
8610;SDS011;4343;53.648;10.098;2023-07-28T10:57:46;1.20;;;1.20;;
8610;SDS011;4343;53.648;10.098;2023-07-28T11:00:14;1.40;;;1.40;;
8610;SDS011;4343;53.648;10.098;2023-07-28T11:02:42;1.75;;;1.75;;
8610;SDS011;4343;53.648;10.098;2023-07-28T11:05:09;1.30;;;1.30;;
8610;SDS011;4343;53.648;10.098;2023-07-28T11:07:36;1.40;;;1.40;;
8610;SDS011;4343;53.648;10.098;2023-07-28T11:10:03;1.45;;;1.45;;
8610;SDS011;4343;53.648;10.098;2023-07-28T11:12:32;1.52;;;1.42;;
8610;SDS011;4343;53.648;10.098;2023-07-28T11:14:58;1.30;;;1.25;;
8610;SDS011;4343;53.648;10.098;2023-07-28T11:17:24;1.50;;;1.45;;
8610;SDS011;4343;53.648;10.098;2023-07-28T11:19:52;1.50;;;1.50;;
8610;SDS011;4343;53.648;10.098;2023-07-28T11:22:17;1.60;;;1.60;;
8610;SDS011;4343;53.648;10.098;2023-07-28T11:24:43;1.60;;;1.60;;
8610;SDS011;4343;53.648;10.098;2023-07-28T11:27:10;1.65;;;1.65;;
8610;SDS011;4343;53.648;10.098;2023-07-28T11:29:36;1.40;;;1.40;;
8610;SDS011;4343;53.648;10.098;2023-07-28T11:32:02;1.30;;;1.30;;
8610;SDS011;4343;53.648;10.098;2023-07-28T11:34:28;1.70;;;1.70;;
8610;SDS011;4343;53.648;10.098;2023-07-28T11:37:00;1.70;;;1.60;;
8610;SDS011;4343;53.648;10.098;2023-07-28T11:39:28;1.67;;;1.67;;
8610;SDS011;4343;53.648;10.098;2023-07-28T11:41:56;1.63;;;1.52;;
8610;SDS011;4343;53.648;10.098;2023-07-28T11:44:22;1.60;;;1.60;;
8610;SDS011;4343;53.648;10.098;2023-07-28T19:14:14;1.20;;;1.20;;
8610;SDS011;4343;53.648;10.098;2023-07-28T19:16:41;1.30;;;1.30;;
8610;SDS011;4343;53.648;10.098;2023-07-28T19:19:08;1.45;;;1.40;;
8610;SDS011;4343;53.648;10.098;2023-07-28T19:21:34;1.33;;;1.33;;
8610;SDS011;4343;53.648;10.098;2023-07-28T19:23:59;1.35;;;1.35;;
8610;SDS011;4343;53.648;10.098;2023-07-28T19:26:25;1.23;;;1.23;;
8610;SDS011;4343;53.648;10.098;2023-07-28T19:28:58;1.20;;;1.20;;
8610;SDS011;4343;53.648;10.098;2023-07-28T19:31:28;1.48;;;1.48;;
8610;SDS011;4343;53.648;10.098;2023-07-28T19:33:53;1.50;;;1.40;;
8610;SDS011;4343;53.648;10.098;2023-07-28T19:36:19;1.48;;;1.48;;
8610;SDS011;4343;53.648;10.098;2023-07-28T19:38:44;1.40;;;1.30;;
8610;SDS011;4343;53.648;10.098;2023-07-28T19:41:10;1.58;;;1.58;;
8610;SDS011;4343;53.648;10.098;2023-07-28T19:43:37;1.35;;;1.35;;
8610;SDS011;4343;53.648;10.098;2023-07-28T19:46:02;1.42;;;1.42;;
8610;SDS011;4343;53.648;10.098;2023-07-28T19:48:28;1.73;;;1.63;;
8610;SDS011;4343;53.648;10.098;2023-07-28T19:50:55;1.92;;;1.20;;
8610;SDS011;4343;53.648;10.098;2023-07-28T19:53:20;1.30;;;1.30;;
8610;SDS011;4343;53.648;10.098;2023-07-28T19:55:46;1.27;;;1.27;;
8610;SDS011;4343;53.648;10.098;2023-07-28T19:58:11;1.95;;;1.63;;
8610;SDS011;4343;53.648;10.098;2023-07-28T20:00:37;1.50;;;1.40;;
8610;SDS011;4343;53.648;10.098;2023-07-28T20:03:02;1.30;;;1.20;;
8610;SDS011;4343;53.648;10.098;2023-07-28T20:05:28;1.48;;;1.45;;
8610;SDS011;4343;53.648;10.098;2023-07-28T20:07:53;1.52;;;1.10;;
8610;SDS011;4343;53.648;10.098;2023-07-28T20:10:19;1.20;;;1.20;;
8610;SDS011;4343;53.648;10.098;2023-07-28T20:12:44;1.52;;;1.52;;
8610;SDS011;4343;53.648;10.098;2023-07-28T20:15:10;2.72;;;1.40;;
8610;SDS011;4343;53.648;10.098;2023-07-28T20:17:35;1.52;;;1.52;;
8610;SDS011;4343;53.648;10.098;2023-07-28T20:20:01;3.10;;;1.63;;
8610;SDS011;4343;53.648;10.098;2023-07-28T20:22:28;1.30;;;1.30;;
8610;SDS011;4343;53.648;10.098;2023-07-28T20:24:54;2.05;;;1.40;;
8610;SDS011;4343;53.648;10.098;2023-07-28T20:27:19;1.35;;;1.35;;
8610;SDS011;4343;53.648;10.098;2023-07-28T20:29:45;1.77;;;1.67;;
8610;SDS011;4343;53.648;10.098;2023-07-28T20:32:11;1.77;;;1.77;;
8610;SDS011;4343;53.648;10.098;2023-07-28T20:34:36;1.52;;;1.52;;
8610;SDS011;4343;53.648;10.098;2023-07-28T20:37:02;1.60;;;1.60;;
8610;SDS011;4343;53.648;10.098;2023-07-28T20:39:28;1.60;;;1.60;;
8610;SDS011;4343;53.648;10.098;2023-07-28T20:41:53;1.60;;;1.50;;
8610;SDS011;4343;53.648;10.098;2023-07-28T20:44:19;1.58;;;1.58;;
8610;SDS011;4343;53.648;10.098;2023-07-28T20:46:46;1.60;;;1.60;;
8610;SDS011;4343;53.648;10.098;2023-07-28T20:49:12;1.90;;;1.80;;
8610;SDS011;4343;53.648;10.098;2023-07-28T20:51:37;1.67;;;1.38;;
8610;SDS011;4343;53.648;10.098;2023-07-28T20:54:03;1.60;;;1.60;;
8610;SDS011;4343;53.648;10.098;2023-07-28T20:56:28;2.20;;;2.10;;
8610;SDS011;4343;53.648;10.098;2023-07-28T20:58:54;1.58;;;1.58;;
8610;SDS011;4343;53.648;10.098;2023-07-28T21:01:19;2.30;;;2.05;;
8610;SDS011;4343;53.648;10.098;2023-07-28T21:03:45;1.77;;;1.70;;
8610;SDS011;4343;53.648;10.098;2023-07-28T21:06:10;1.75;;;1.75;;
8610;SDS011;4343;53.648;10.098;2023-07-28T21:08:40;1.92;;;1.83;;
8610;SDS011;4343;53.648;10.098;2023-07-28T21:11:06;2.10;;;1.92;;
8610;SDS011;4343;53.648;10.098;2023-07-28T21:13:31;3.08;;;2.42;;
8610;SDS011;4343;53.648;10.098;2023-07-28T21:15:57;1.63;;;1.60;;
8610;SDS011;4343;53.648;10.098;2023-07-28T21:18:24;2.03;;;1.92;;
8610;SDS011;4343;53.648;10.098;2023-07-28T21:20:50;2.20;;;2.10;;
8610;SDS011;4343;53.648;10.098;2023-07-28T21:23:18;1.73;;;1.73;;
8610;SDS011;4343;53.648;10.098;2023-07-28T21:25:44;1.67;;;1.67;;
8610;SDS011;4343;53.648;10.098;2023-07-28T21:28:10;2.15;;;2.00;;
8610;SDS011;4343;53.648;10.098;2023-07-28T21:30:36;2.00;;;1.80;;
8610;SDS011;4343;53.648;10.098;2023-07-28T21:33:02;2.13;;;2.03;;
8610;SDS011;4343;53.648;10.098;2023-07-28T21:35:29;2.05;;;1.95;;
8610;SDS011;4343;53.648;10.098;2023-07-28T21:37:55;2.58;;;2.47;;
8610;SDS011;4343;53.648;10.098;2023-07-28T21:40:20;1.77;;;1.77;;
8610;SDS011;4343;53.648;10.098;2023-07-28T21:42:46;2.20;;;1.98;;
8610;SDS011;4343;53.648;10.098;2023-07-28T21:45:11;2.85;;;2.10;;
8610;SDS011;4343;53.648;10.098;2023-07-28T21:47:37;2.00;;;1.95;;
8610;SDS011;4343;53.648;10.098;2023-07-28T21:50:02;2.08;;;2.08;;
8610;SDS011;4343;53.648;10.098;2023-07-28T21:52:30;1.98;;;1.98;;
8610;SDS011;4343;53.648;10.098;2023-07-28T21:54:56;1.90;;;1.90;;
8610;SDS011;4343;53.648;10.098;2023-07-28T21:57:21;2.08;;;1.98;;
8610;SDS011;4343;53.648;10.098;2023-07-28T21:59:47;2.63;;;2.10;;
8610;SDS011;4343;53.648;10.098;2023-07-28T22:02:13;1.67;;;1.67;;
8610;SDS011;4343;53.648;10.098;2023-07-28T22:04:41;2.17;;;2.13;;
8610;SDS011;4343;53.648;10.098;2023-07-28T22:07:06;2.20;;;2.10;;
8610;SDS011;4343;53.648;10.098;2023-07-28T22:09:32;1.90;;;1.90;;
8610;SDS011;4343;53.648;10.098;2023-07-28T22:11:57;3.88;;;2.25;;
8610;SDS011;4343;53.648;10.098;2023-07-28T22:14:23;2.22;;;2.10;;
8610;SDS011;4343;53.648;10.098;2023-07-28T22:16:48;2.30;;;2.20;;
8610;SDS011;4343;53.648;10.098;2023-07-28T22:19:14;2.40;;;2.30;;
8610;SDS011;4343;53.648;10.098;2023-07-28T22:21:39;2.10;;;2.10;;
8610;SDS011;4343;53.648;10.098;2023-07-28T22:24:05;2.30;;;2.20;;
8610;SDS011;4343;53.648;10.098;2023-07-28T22:26:33;2.58;;;2.38;;